Portada
METAR-TAF:

METAR-TAF

Aeroports :

Tarapoto, Perú

latitud: 06-27S, longitud: 076-23W, altitud: 281 m

Observació

L'informe es va fer fa 1 hora i 8 minuts, a les 18:00 UTC
Vent 5 kt del Sud
Temperatura 34°C
Humitat 47%
Pressió 1010 hPa
Visibilitat 10 km o més
Núvols disperses a una alçada de 2000 ft

METAR: SPST 111800Z 17005KT 9999 SCT020 34/21 Q1010 RMK BIRD HAZARD RWY 17/35 PP000

Hora: 14:08 (19:08 UTC)

Pronòstic

L'informe es va fer fa 2 hores i 8 minuts, a les 17:00 UTC
Pronòstic vàlid del 11 a les 18 UTC al 12 a les 18 UTC
Vent 5 kt del Est/Nord-Est
Visibilitat 10 km o més
Núvols disperses a una alçada de 2000 ft
Evolucionant progressivament
l' 11 a les 21 UTC al 11 a les 23 UTC
Vent kt del Nord
Escasses núvols a una alçada de 2000 ft
Núvols disperses a una alçada de 10000 ft

TAF: SPST 111700Z 1118/1218 06005KT 9999 SCT020 TX33/1119Z TN18/1211Z BECMG 1121/1123 00000KT FEW020 SCT100

Observacions i pronòstics meteorològics de més de 4000 aeroports (METAR i TAF).

Les estacions disponibles són els punts grocs i vermells al mapa.

Posi el ratolí al punt desitjat per veure el nom de l'estació.

Feu clic per veure les observacions i els pronòstics meteorològics.

Per canviar el mapa: feu clic els botons verds amb una creu de color negre per apropar; al botó verd amb un guió per allunyar la imatge; o en les fletxes verdes per a mapes adjacents.


METAR-TAF: